Aérodrome :
LOGIN :

S'inscrire | Disclaimer

   EN    FR    IT 

 










Légende :    VFR   VFR Marginal   IFR   IFR Intensif   IFR Très Intensif
Visi : 
Plafond : 
>= 8 km
>= 3000ft
5 à 8 km
1000 à 3000 ft
1500m à 5 km
500 à 1000 ft
800 à 1500m
200 à 500 ft
< 800m
< 200 ft
Symboles :   Orages  Brouillard  Fortes neiges  Fortes précipitations  Vent > 20 kt
SIGMETs :   Divers  Orages  Givrage  Turbulence  Onde Orograph.  Cendres Volcan.






- Altitude de l'aérodrome : 386 ft
- Code IATA : QOE


ETNN - Nörvenich Airforce Base

DERNIER METAR :
  • 262220Z 22013G23KT 5000 +RA BR SCT015 OVC026 10/09 Q0997 WHT

METARs EXPIRÉS :
  • 262207Z 21008KT 8000 +RA SCT017 OVC030 10/09 Q0997 BLU
  • 262120Z 20008KT 8000 RA OVC050 10/09 Q0998 BLU
  • 262020Z 25004KT 8000 RA OVC045 10/09 Q1000 BLU
  • 261920Z 26004KT 9999 RA OVC045 10/09 Q1000 BLU

TAF TAF ETNN
Valide du 26 à 20h jusqu'au 27 à 05h UTC


261910Z 2620/2705 25010KT 8000 -RA SCT015 BKN030
TEMPO 2620/2705 30012G22KT 3000 RADZ BKN006 BKN015 BY ETGL



MET'MAP, la Météo Aéronautique d'un coup d'oeil ! - Copyright ORBIFLY Décembre 2007 - Disclaimer

ORBIFLY MET'MAP TEAM :

Programmation & Développement : Alexandra Zaïnal
Sur une idée originale de : Baudouin d'Aumeries
Assistance à la programmation : Marc-Olivier Méhu
Soutien technique & logistique : Manuel Goepfert

Contact : metmap@orbifly.com




SOURCES & CREDITS :

   NOAA